createdAt,value
2022-10-05T00:02:25.670Z,6.56
2022-10-05T00:04:56.143Z,6.33
2022-10-05T00:07:25.401Z,6.52
2022-10-05T00:09:55.841Z,6.45
2022-10-05T00:12:24.444Z,6.29
2022-10-05T00:14:54.308Z,6.39
2022-10-05T00:17:22.776Z,6.48
2022-10-05T00:20:15.521Z,6.43
2022-10-05T00:22:42.376Z,6.62
2022-10-05T00:25:14.995Z,6.40
2022-10-05T00:27:46.321Z,6.48
2022-10-05T00:30:18.800Z,6.43
2022-10-05T00:32:50.648Z,6.51
2022-10-05T00:35:19.529Z,6.54
2022-10-05T00:37:47.595Z,6.47
2022-10-05T00:40:37.147Z,6.72
2022-10-05T00:43:17.371Z,6.90
2022-10-05T00:45:55.640Z,6.89
2022-10-05T00:48:22.707Z,6.92
2022-10-05T00:51:12.432Z,6.87
2022-10-05T00:53:51.681Z,6.95
2022-10-05T00:56:30.850Z,6.83
2022-10-05T00:59:16.583Z,6.74
2022-10-05T01:01:43.392Z,6.79
2022-10-05T01:04:19.554Z,6.83
2022-10-05T01:06:50.496Z,6.70
2022-10-05T01:09:34.450Z,6.67
2022-10-05T01:12:31.507Z,6.65
2022-10-05T01:15:20.119Z,6.71
2022-10-05T01:17:53.690Z,6.79
2022-10-05T01:20:23.745Z,6.73
2022-10-05T01:23:15.635Z,6.68
2022-10-05T01:26:05.929Z,6.73
2022-10-05T01:28:42.475Z,6.64
2022-10-05T01:31:28.824Z,6.61
2022-10-05T01:33:59.672Z,6.67
2022-10-05T01:36:26.662Z,6.66
2022-10-05T01:38:54.489Z,6.61
2022-10-05T01:41:24.394Z,6.64
2022-10-05T01:44:09.961Z,6.91
2022-10-05T01:46:57.662Z,6.84
2022-10-05T01:50:02.529Z,6.87
2022-10-05T01:52:41.226Z,7.03
2022-10-05T01:55:30.002Z,7.14
2022-10-05T01:58:02.776Z,7.15
2022-10-05T02:00:41.156Z,7.07
2022-10-05T02:03:18.818Z,6.98
2022-10-05T02:06:07.913Z,7.04
2022-10-05T02:08:45.184Z,7.18
2022-10-05T02:11:15.157Z,7.18
2022-10-05T02:13:51.135Z,7.00
2022-10-05T02:16:24.791Z,7.24
2022-10-05T02:19:10.678Z,7.09
2022-10-05T02:21:37.662Z,7.07
2022-10-05T02:24:13.528Z,6.98
2022-10-05T02:26:44.088Z,7.04
2022-10-05T02:29:13.733Z,6.99
2022-10-05T02:31:47.059Z,6.94
2022-10-05T02:34:30.807Z,6.91
2022-10-05T02:37:00.558Z,7.07
2022-10-05T02:39:37.787Z,7.05
2022-10-05T02:42:11.257Z,7.05
2022-10-05T02:44:58.630Z,7.00
2022-10-05T02:47:37.604Z,6.82
2022-10-05T02:50:27.296Z,6.99
2022-10-05T02:53:00.876Z,6.97
2022-10-05T02:55:46.107Z,6.82
2022-10-05T02:58:18.814Z,6.78
2022-10-05T03:00:48.221Z,6.72
2022-10-05T03:03:40.920Z,6.70
2022-10-05T03:06:17.693Z,6.58
2022-10-05T03:08:44.540Z,6.48
2022-10-05T03:11:23.687Z,6.68
2022-10-05T03:14:09.334Z,6.75
2022-10-05T03:16:58.203Z,6.71
2022-10-05T03:19:50.709Z,6.64
2022-10-05T03:22:25.114Z,6.67
2022-10-05T03:25:13.264Z,6.54
2022-10-05T03:28:13.898Z,6.58
2022-10-05T03:31:06.862Z,6.61
2022-10-05T03:33:41.300Z,6.63
2022-10-05T03:36:26.765Z,6.60
2022-10-05T03:38:54.700Z,6.55
2022-10-05T03:41:43.064Z,6.53
2022-10-05T03:44:16.974Z,6.48
2022-10-05T03:46:57.556Z,6.48
2022-10-05T03:49:38.214Z,6.49
2022-10-05T03:52:18.225Z,6.45
2022-10-05T03:54:50.620Z,6.45
2022-10-05T03:57:25.068Z,6.39
2022-10-05T03:59:52.862Z,6.49
2022-10-05T04:02:31.369Z,6.49
2022-10-05T04:05:03.605Z,6.50
2022-10-05T04:07:43.811Z,6.50
2022-10-05T04:10:31.821Z,6.45
2022-10-05T04:13:02.549Z,6.44
2022-10-05T04:15:49.162Z,6.39
2022-10-05T04:18:43.058Z,6.42
2022-10-05T04:21:23.356Z,6.37
2022-10-05T04:23:59.850Z,6.56
2022-10-05T04:26:41.001Z,6.61
2022-10-05T04:29:15.179Z,6.60
2022-10-05T04:32:02.800Z,6.64
2022-10-05T04:34:49.279Z,6.54
2022-10-05T04:37:26.334Z,6.54
2022-10-05T04:40:08.245Z,6.56
2022-10-05T04:42:55.393Z,6.49
2022-10-05T04:45:22.289Z,6.46
2022-10-05T04:48:19.948Z,6.42
2022-10-05T04:51:05.114Z,6.47
2022-10-05T04:53:46.257Z,6.57
2022-10-05T04:56:18.935Z,6.53
2022-10-05T04:59:01.927Z,6.49
2022-10-05T05:01:51.613Z,6.57
2022-10-05T05:04:19.776Z,6.51
2022-10-05T05:07:02.581Z,6.68
2022-10-05T05:09:34.253Z,6.82
2022-10-05T05:12:01.179Z,6.85
2022-10-05T05:14:47.885Z,6.83
2022-10-05T05:17:33.079Z,6.82
2022-10-05T05:20:06.978Z,6.76
2022-10-05T05:22:33.949Z,6.70
2022-10-05T05:25:00.696Z,6.78
2022-10-05T05:27:36.517Z,6.76
2022-10-05T05:30:12.936Z,6.91
2022-10-05T05:33:05.445Z,7.05
2022-10-05T05:35:44.328Z,7.03
2022-10-05T05:38:15.212Z,7.10
2022-10-05T05:40:50.660Z,7.16
2022-10-05T05:43:24.793Z,7.25
2022-10-05T05:45:57.948Z,7.42
2022-10-05T05:48:30.898Z,7.41
2022-10-05T05:51:10.037Z,7.55
2022-10-05T05:53:52.713Z,7.67
2022-10-05T05:56:24.359Z,7.74
2022-10-05T05:58:54.198Z,7.82
2022-10-05T06:01:32.861Z,7.83
2022-10-05T06:04:00.715Z,7.85
2022-10-05T06:06:36.294Z,7.95
2022-10-05T06:09:07.127Z,7.99
2022-10-05T06:11:50.682Z,8.13
2022-10-05T06:14:26.243Z,8.06
2022-10-05T06:17:12.447Z,8.17
2022-10-05T06:19:39.443Z,8.24
2022-10-05T06:22:12.810Z,8.27
2022-10-05T06:24:55.898Z,8.34
2022-10-05T06:27:39.005Z,8.40
2022-10-05T06:30:10.385Z,8.45
2022-10-05T06:33:07.784Z,8.48
2022-10-05T06:35:37.746Z,8.49
2022-10-05T06:38:13.998Z,8.52
2022-10-05T06:40:47.069Z,8.59
2022-10-05T06:43:36.117Z,8.67
2022-10-05T06:46:07.417Z,8.78
2022-10-05T06:48:55.063Z,8.84
2022-10-05T06:51:44.715Z,8.93
2022-10-05T06:54:33.391Z,9.04
2022-10-05T06:57:17.534Z,9.17
2022-10-05T06:59:58.227Z,9.25
2022-10-05T07:02:43.458Z,9.34
2022-10-05T07:05:19.474Z,9.49
2022-10-05T07:07:55.490Z,9.74
2022-10-05T07:10:31.635Z,9.83
2022-10-05T07:13:05.457Z,10.05
2022-10-05T07:15:55.431Z,10.26
2022-10-05T07:18:34.568Z,10.61
2022-10-05T07:21:24.287Z,10.84
2022-10-05T07:23:54.225Z,11.11
2022-10-05T07:26:31.239Z,11.32
2022-10-05T07:29:17.785Z,11.40
2022-10-05T07:31:49.899Z,11.58
2022-10-05T07:34:35.855Z,11.67
2022-10-05T07:37:24.484Z,11.74
2022-10-05T07:40:16.943Z,11.97
2022-10-05T07:43:09.162Z,12.08
2022-10-05T07:45:51.622Z,12.09
2022-10-05T07:48:37.067Z,12.17
2022-10-05T07:51:06.849Z,12.33
2022-10-05T07:53:36.997Z,12.47
2022-10-05T07:56:33.994Z,12.69
2022-10-05T07:59:08.109Z,12.98
2022-10-05T08:01:37.834Z,13.21
2022-10-05T08:04:06.833Z,13.00
2022-10-05T08:06:46.849Z,13.04
2022-10-05T08:09:39.809Z,13.13
2022-10-05T08:12:24.605Z,13.11
2022-10-05T08:15:01.569Z,13.28
2022-10-05T08:17:38.549Z,13.28
2022-10-05T08:20:26.075Z,13.27
2022-10-05T08:22:59.209Z,13.49
2022-10-05T08:25:30.477Z,13.57
2022-10-05T08:28:05.976Z,13.77
2022-10-05T08:30:35.647Z,14.00
2022-10-05T08:33:13.137Z,14.19
2022-10-05T08:35:45.130Z,14.46
2022-10-05T08:38:18.869Z,14.44
2022-10-05T08:41:15.126Z,14.31
2022-10-05T08:43:59.850Z,14.21
2022-10-05T08:46:44.220Z,14.33
2022-10-05T08:49:35.440Z,14.47
2022-10-05T08:52:24.175Z,14.44
2022-10-05T08:55:09.499Z,14.45
2022-10-05T08:57:45.133Z,14.77
2022-10-05T09:00:14.223Z,15.12
2022-10-05T09:03:00.813Z,15.64
2022-10-05T09:05:48.405Z,16.24
2022-10-05T09:08:31.445Z,16.65
2022-10-05T09:11:11.597Z,16.85
2022-10-05T09:13:57.672Z,16.99
2022-10-05T09:16:57.441Z,17.27
2022-10-05T09:19:53.314Z,17.87
2022-10-05T09:22:40.048Z,18.32
2022-10-05T09:25:18.078Z,18.47
2022-10-05T09:27:57.128Z,18.53
2022-10-05T09:30:35.034Z,18.69
2022-10-05T09:33:39.094Z,18.45
2022-10-05T09:36:12.694Z,18.72
2022-10-05T09:38:40.488Z,19.16
2022-10-05T09:41:34.475Z,19.49
2022-10-05T09:44:22.327Z,19.82
2022-10-05T09:47:11.114Z,20.20
2022-10-05T09:49:57.753Z,20.81
2022-10-05T09:52:45.532Z,21.10
2022-10-05T09:55:33.336Z,21.16
2022-10-05T09:58:00.180Z,21.35
2022-10-05T10:00:51.485Z,20.80
2022-10-05T10:03:26.415Z,20.30
2022-10-05T10:06:02.949Z,20.54
2022-10-05T10:08:52.807Z,20.17
2022-10-05T10:11:19.669Z,19.79
2022-10-05T10:13:57.456Z,19.90
2022-10-05T10:16:24.327Z,20.69
2022-10-05T10:19:14.199Z,20.90
2022-10-05T10:22:24.999Z,20.48
2022-10-05T10:24:51.922Z,21.24
2022-10-05T10:27:33.720Z,21.80
2022-10-05T10:30:20.032Z,21.99
2022-10-05T10:33:12.007Z,22.00
2022-10-05T10:35:41.990Z,22.25
2022-10-05T10:38:22.507Z,22.54
2022-10-05T10:41:09.466Z,22.27
2022-10-05T10:44:01.138Z,21.84
2022-10-05T10:46:49.662Z,21.94
2022-10-05T10:49:26.711Z,22.03
2022-10-05T10:52:13.469Z,21.68
2022-10-05T10:54:41.306Z,20.60
2022-10-05T10:57:30.022Z,19.97
2022-10-05T11:00:10.109Z,19.64
2022-10-05T11:02:49.093Z,19.78
2022-10-05T11:05:37.082Z,20.05
2022-10-05T11:08:10.292Z,20.10
2022-10-05T11:10:59.248Z,20.38
2022-10-05T11:13:26.202Z,20.54
2022-10-05T11:16:02.292Z,20.28
2022-10-05T11:18:49.403Z,19.70
2022-10-05T11:21:37.093Z,19.38
2022-10-05T11:24:19.413Z,19.58
2022-10-05T11:27:00.540Z,19.93
2022-10-05T11:29:47.198Z,20.13
2022-10-05T11:32:37.817Z,20.19
2022-10-05T11:35:30.352Z,20.33
2022-10-05T11:38:16.054Z,20.66
2022-10-05T11:41:08.469Z,20.62
2022-10-05T11:43:40.837Z,20.62
2022-10-05T11:46:16.927Z,20.61
2022-10-05T11:49:22.135Z,20.43
2022-10-05T11:52:07.060Z,20.32
2022-10-05T11:55:16.136Z,20.59
2022-10-05T11:57:48.233Z,20.27
2022-10-05T12:00:25.528Z,20.21
2022-10-05T12:02:54.528Z,20.35
2022-10-05T12:05:32.724Z,20.31
2022-10-05T12:08:17.045Z,20.61
2022-10-05T12:10:57.158Z,20.10
2022-10-05T12:13:46.088Z,20.10
2022-10-05T12:16:18.669Z,20.74
2022-10-05T12:19:00.796Z,21.44
2022-10-05T12:21:49.576Z,20.86
2022-10-05T12:24:26.866Z,20.28
2022-10-05T12:27:02.440Z,19.76
2022-10-05T12:29:45.704Z,19.70
2022-10-05T12:32:27.375Z,19.98
2022-10-05T12:35:04.963Z,19.88
2022-10-05T12:37:48.342Z,19.61
2022-10-05T12:40:19.341Z,19.60
2022-10-05T12:42:57.047Z,19.53
2022-10-05T12:45:24.969Z,18.97
2022-10-05T12:47:53.865Z,18.91
2022-10-05T12:51:04.603Z,18.80
2022-10-05T12:53:37.523Z,18.55
2022-10-05T12:56:08.901Z,18.19
2022-10-05T12:58:48.907Z,18.22
2022-10-05T13:01:41.548Z,18.37
2022-10-05T13:04:33.432Z,18.43
2022-10-05T13:07:03.418Z,18.46
2022-10-05T13:09:59.573Z,18.42
2022-10-05T13:12:39.817Z,18.53
2022-10-05T13:15:13.937Z,18.41
2022-10-05T13:17:54.974Z,18.42
2022-10-05T13:20:38.111Z,18.55
2022-10-05T13:23:23.375Z,19.10
2022-10-05T13:25:57.206Z,19.54
2022-10-05T13:28:34.354Z,20.16
2022-10-05T13:31:04.210Z,19.54
2022-10-05T13:33:36.769Z,19.53
2022-10-05T13:36:42.290Z,19.34
2022-10-05T13:39:33.373Z,19.54
2022-10-05T13:42:13.184Z,19.17
2022-10-05T13:44:46.010Z,19.36
2022-10-05T13:47:19.453Z,19.50
2022-10-05T13:49:55.103Z,19.41
2022-10-05T13:52:25.932Z,19.31
2022-10-05T13:55:29.865Z,18.88
2022-10-05T13:58:06.073Z,19.23
2022-10-05T14:00:40.047Z,19.19
2022-10-05T14:03:23.819Z,19.16
2022-10-05T14:06:01.758Z,18.98
2022-10-05T14:08:30.591Z,19.01
2022-10-05T14:10:58.524Z,18.68
2022-10-05T14:13:27.215Z,18.73
2022-10-05T14:16:12.573Z,18.66
2022-10-05T14:18:50.219Z,18.66
2022-10-05T14:21:36.767Z,18.63
2022-10-05T14:24:43.185Z,18.73
2022-10-05T14:27:31.489Z,18.74
2022-10-05T14:30:17.314Z,18.98
2022-10-05T14:32:50.950Z,18.82
2022-10-05T14:35:18.704Z,18.87
2022-10-05T14:37:58.726Z,18.65
2022-10-05T14:40:28.059Z,18.21
2022-10-05T14:42:56.600Z,18.06
2022-10-05T14:45:33.616Z,17.86
2022-10-05T14:48:02.112Z,17.85
2022-10-05T14:50:31.674Z,17.81
2022-10-05T14:53:14.543Z,17.82
2022-10-05T14:55:47.231Z,17.60
2022-10-05T14:58:32.867Z,17.49
2022-10-05T15:01:13.946Z,17.33
2022-10-05T15:03:47.130Z,17.39
2022-10-05T15:06:35.208Z,17.39
2022-10-05T15:09:17.697Z,17.21
2022-10-05T15:11:51.588Z,17.12
2022-10-05T15:14:25.621Z,17.06
2022-10-05T15:16:58.337Z,17.09
2022-10-05T15:19:50.683Z,17.15
2022-10-05T15:22:18.988Z,16.99
2022-10-05T15:25:03.132Z,16.91
2022-10-05T15:27:31.028Z,16.85
2022-10-05T15:30:03.858Z,16.83
2022-10-05T15:32:43.075Z,16.74
2022-10-05T15:35:29.148Z,16.62
2022-10-05T15:38:21.512Z,16.58
2022-10-05T15:41:11.074Z,16.54
2022-10-05T15:43:46.452Z,16.44
2022-10-05T15:46:14.373Z,16.44
2022-10-05T15:49:01.101Z,16.35
2022-10-05T15:51:50.968Z,16.39
2022-10-05T15:54:43.547Z,16.30
2022-10-05T15:57:33.696Z,16.24
2022-10-05T16:00:04.927Z,16.11
2022-10-05T16:02:42.218Z,15.96
2022-10-05T16:05:40.331Z,15.93
2022-10-05T16:08:31.003Z,15.86
2022-10-05T16:11:05.579Z,15.75
2022-10-05T16:13:40.149Z,15.70
2022-10-05T16:16:25.464Z,15.67
2022-10-05T16:19:11.415Z,15.61
2022-10-05T16:21:51.774Z,15.57
2022-10-05T16:24:24.673Z,15.47
2022-10-05T16:27:03.855Z,15.42
2022-10-05T16:29:37.421Z,15.32
2022-10-05T16:32:12.733Z,15.29
2022-10-05T16:34:54.783Z,15.24
2022-10-05T16:37:25.129Z,15.18
2022-10-05T16:40:13.947Z,15.15
2022-10-05T16:43:05.763Z,15.21
2022-10-05T16:46:07.683Z,15.15
2022-10-05T16:49:10.671Z,15.13
2022-10-05T16:51:43.779Z,15.13
2022-10-05T16:54:20.281Z,15.04
2022-10-05T16:56:53.457Z,14.99
2022-10-05T16:59:38.802Z,14.93
2022-10-05T17:02:11.392Z,14.91
2022-10-05T17:04:38.969Z,14.83
2022-10-05T17:07:18.170Z,14.84
2022-10-05T17:09:49.119Z,14.84
2022-10-05T17:12:42.805Z,14.74
2022-10-05T17:15:13.234Z,14.73
2022-10-05T17:18:06.317Z,14.69
2022-10-05T17:20:51.875Z,14.66
2022-10-05T17:23:50.741Z,14.62
2022-10-05T17:26:24.553Z,14.61
2022-10-05T17:28:57.708Z,14.54
2022-10-05T17:31:26.027Z,14.49
2022-10-05T17:34:31.145Z,14.48
2022-10-05T17:36:59.915Z,14.41
2022-10-05T17:39:51.708Z,14.39
2022-10-05T17:42:30.646Z,14.39
2022-10-05T17:45:02.829Z,14.45
2022-10-05T17:47:48.503Z,14.36
2022-10-05T17:50:53.954Z,14.32
2022-10-05T17:53:41.516Z,14.25
2022-10-05T17:56:17.505Z,14.21
2022-10-05T17:58:55.409Z,14.21
2022-10-05T18:01:38.809Z,14.17
2022-10-05T18:04:13.817Z,14.26
2022-10-05T18:06:45.281Z,14.22
2022-10-05T18:09:12.835Z,14.18
2022-10-05T18:11:41.857Z,14.15
2022-10-05T18:14:20.893Z,14.14
2022-10-05T18:17:11.436Z,14.08
2022-10-05T18:19:39.821Z,13.99
2022-10-05T18:22:15.994Z,13.94
2022-10-05T18:24:56.504Z,13.88
2022-10-05T18:27:32.100Z,13.88
2022-10-05T18:30:19.117Z,13.89
2022-10-05T18:33:13.970Z,13.88
2022-10-05T18:35:47.511Z,13.90
2022-10-05T18:38:22.314Z,13.89
2022-10-05T18:41:00.652Z,13.91
2022-10-05T18:43:27.472Z,13.89
2022-10-05T18:46:14.184Z,13.93
2022-10-05T18:48:50.715Z,13.96
2022-10-05T18:51:26.656Z,13.90
2022-10-05T18:54:14.442Z,14.04
2022-10-05T18:56:46.713Z,14.04
2022-10-05T18:59:25.833Z,14.05
2022-10-05T19:02:11.884Z,14.00
2022-10-05T19:04:42.213Z,13.98
2022-10-05T19:07:30.397Z,13.97
2022-10-05T19:10:09.379Z,13.93
2022-10-05T19:12:48.553Z,13.95
2022-10-05T19:15:18.611Z,13.92
2022-10-05T19:17:45.529Z,13.98
2022-10-05T19:20:18.993Z,14.00
2022-10-05T19:23:08.653Z,13.98
2022-10-05T19:25:43.763Z,13.96
2022-10-05T19:28:19.035Z,13.98
2022-10-05T19:31:01.762Z,13.95
2022-10-05T19:33:48.814Z,13.92
2022-10-05T19:36:25.054Z,13.95
2022-10-05T19:38:59.418Z,13.94
2022-10-05T19:41:44.271Z,13.93
2022-10-05T19:44:31.040Z,13.97
2022-10-05T19:47:02.876Z,13.98
2022-10-05T19:49:52.813Z,14.00
2022-10-05T19:52:30.594Z,14.02
2022-10-05T19:55:24.452Z,14.03
2022-10-05T19:57:54.380Z,14.08
2022-10-05T20:00:24.838Z,14.02
2022-10-05T20:06:13.520Z,13.98
2022-10-05T20:08:45.345Z,14.00
2022-10-05T20:11:14.443Z,13.96
2022-10-05T20:13:43.726Z,13.92
2022-10-05T20:16:49.376Z,13.94
2022-10-05T20:22:40.507Z,13.95
2022-10-05T20:25:29.001Z,13.94
2022-10-05T20:27:56.598Z,13.92
2022-10-05T20:30:43.098Z,13.92
2022-10-05T20:33:15.039Z,13.90
2022-10-05T20:35:41.994Z,13.88
2022-10-05T20:38:09.864Z,13.90
2022-10-05T20:40:36.691Z,13.74
2022-10-05T20:43:03.601Z,13.78
2022-10-05T20:45:35.479Z,13.77
2022-10-05T20:48:03.533Z,13.77
2022-10-05T20:50:33.026Z,13.74
2022-10-05T20:53:11.966Z,13.72
2022-10-05T20:55:40.168Z,13.70
2022-10-05T20:58:13.081Z,13.73
2022-10-05T21:00:59.230Z,13.52
2022-10-05T21:03:35.070Z,13.41
2022-10-05T21:06:05.103Z,13.51
2022-10-05T21:08:32.988Z,13.58
2022-10-05T21:11:23.251Z,13.56
2022-10-05T21:13:53.907Z,13.49
2022-10-05T21:16:21.197Z,13.38
2022-10-05T21:18:52.153Z,13.17
2022-10-05T21:21:33.364Z,13.23
2022-10-05T21:24:03.309Z,13.36
2022-10-05T21:26:34.076Z,13.22
2022-10-05T21:29:02.784Z,13.20
2022-10-05T21:31:37.179Z,13.13
2022-10-05T21:34:05.212Z,13.05
2022-10-05T21:36:32.863Z,13.19
2022-10-05T21:39:00.316Z,13.14
2022-10-05T21:41:28.227Z,13.12
2022-10-05T21:44:07.026Z,13.28
2022-10-05T21:46:40.468Z,13.21
2022-10-05T21:49:07.747Z,13.14
2022-10-05T21:51:36.788Z,13.08
2022-10-05T21:54:09.548Z,13.15
2022-10-05T21:56:38.809Z,13.15
2022-10-05T21:59:24.054Z,13.17
2022-10-05T22:02:04.341Z,13.11
2022-10-05T22:04:39.203Z,12.98
2022-10-05T22:07:29.310Z,12.98
2022-10-05T22:09:57.170Z,13.02
2022-10-05T22:12:29.098Z,13.05
2022-10-05T22:14:59.029Z,13.05
2022-10-05T22:17:31.182Z,13.02
2022-10-05T22:19:59.462Z,12.98
2022-10-05T22:22:27.393Z,12.90
2022-10-05T22:24:54.851Z,13.00
2022-10-05T22:27:23.305Z,12.96
2022-10-05T22:29:51.499Z,12.97
2022-10-05T22:32:18.436Z,13.00
2022-10-05T22:34:46.794Z,12.87
2022-10-05T22:37:14.012Z,13.00
2022-10-05T22:39:43.437Z,13.06
2022-10-05T22:42:12.379Z,13.01
2022-10-05T22:44:42.449Z,13.01
2022-10-05T22:47:10.336Z,12.93
2022-10-05T22:49:42.939Z,12.82
2022-10-05T22:52:17.924Z,12.77
2022-10-05T22:54:44.887Z,12.83
2022-10-05T22:57:12.722Z,12.73
2022-10-05T22:59:39.564Z,12.68
2022-10-05T23:02:06.496Z,12.75
2022-10-05T23:04:34.367Z,12.77
2022-10-05T23:07:01.363Z,12.91
2022-10-05T23:09:28.132Z,12.88
2022-10-05T23:11:55.016Z,12.95
2022-10-05T23:14:21.911Z,12.93
2022-10-05T23:16:50.203Z,12.91
2022-10-05T23:19:17.158Z,13.02
2022-10-05T23:21:44.218Z,12.90
2022-10-05T23:24:11.084Z,12.74
2022-10-05T23:26:42.876Z,12.79
2022-10-05T23:29:10.229Z,12.75
2022-10-05T23:31:37.170Z,12.66
2022-10-05T23:34:04.223Z,12.59
2022-10-05T23:36:33.916Z,12.61
2022-10-05T23:39:00.948Z,12.23
2022-10-05T23:41:30.810Z,12.18
2022-10-05T23:44:00.770Z,12.39
2022-10-05T23:46:27.621Z,12.48
2022-10-05T23:48:54.782Z,12.45
2022-10-05T23:51:22.805Z,12.38
2022-10-05T23:53:49.801Z,12.26
2022-10-05T23:56:23.699Z,12.28
2022-10-05T23:58:50.519Z,12.47
